createdAt,value
2023-03-11T00:00:47.692Z,1.70
2023-03-11T00:03:17.968Z,1.60
2023-03-11T00:05:47.057Z,1.60
2023-03-11T00:08:18.223Z,1.60
2023-03-11T00:10:47.492Z,1.60
2023-03-11T00:13:16.880Z,1.60
2023-03-11T00:15:50.031Z,1.60
2023-03-11T00:18:17.692Z,1.60
2023-03-11T00:20:47.165Z,1.60
2023-03-11T00:23:15.682Z,1.60
2023-03-11T00:25:46.444Z,1.70
2023-03-11T00:28:17.231Z,1.70
2023-03-11T00:30:47.256Z,1.80
2023-03-11T00:33:16.209Z,1.80
2023-03-11T00:35:44.304Z,1.90
2023-03-11T00:38:17.920Z,1.90
2023-03-11T00:40:47.671Z,1.90
2023-03-11T00:43:18.001Z,1.80
2023-03-11T00:45:45.125Z,1.80
2023-03-11T00:48:13.805Z,1.80
2023-03-11T00:50:41.109Z,1.80
2023-03-11T00:53:07.893Z,1.70
2023-03-11T00:55:43.669Z,1.70
2023-03-11T00:58:12.621Z,1.60
2023-03-11T01:00:40.140Z,1.70
2023-03-11T01:03:07.274Z,1.70
2023-03-11T01:05:37.615Z,1.80
2023-03-11T01:08:05.554Z,1.70
2023-03-11T01:10:37.369Z,1.70
2023-03-11T01:13:04.741Z,1.70
2023-03-11T01:15:36.386Z,1.70
2023-03-11T01:18:04.648Z,1.80
2023-03-11T01:20:31.804Z,1.80
2023-03-11T01:22:58.604Z,1.80
2023-03-11T01:25:25.754Z,1.70
2023-03-11T01:27:52.511Z,1.80
2023-03-11T01:30:22.846Z,1.80
2023-03-11T01:32:51.166Z,1.80
2023-03-11T01:35:21.484Z,1.80
2023-03-11T01:37:48.661Z,1.80
2023-03-11T01:40:32.312Z,1.80
2023-03-11T01:43:00.927Z,1.80
2023-03-11T01:45:39.976Z,1.80
2023-03-11T01:48:12.251Z,1.80
2023-03-11T01:50:45.236Z,1.70
2023-03-11T01:53:15.558Z,1.70
2023-03-11T01:55:44.234Z,1.70
2023-03-11T01:58:19.766Z,1.70
2023-03-11T02:00:47.331Z,1.70
2023-03-11T02:03:38.987Z,1.70
2023-03-11T02:06:15.882Z,1.70
2023-03-11T02:08:44.064Z,1.70
2023-03-11T02:11:29.139Z,1.60
2023-03-11T02:14:02.124Z,1.60
2023-03-11T02:16:29.201Z,1.60
2023-03-11T02:19:00.723Z,1.60
2023-03-11T02:21:34.353Z,1.60
2023-03-11T02:24:35.814Z,1.60
2023-03-11T02:27:15.981Z,1.50
2023-03-11T02:29:49.968Z,1.50
2023-03-11T02:32:21.001Z,1.40
2023-03-11T02:34:47.804Z,1.40
2023-03-11T02:37:17.647Z,1.40
2023-03-11T02:39:53.597Z,1.40
2023-03-11T02:42:32.358Z,1.40
2023-03-11T02:45:12.580Z,1.30
2023-03-11T02:47:41.016Z,1.30
2023-03-11T02:50:13.581Z,1.30
2023-03-11T02:52:40.357Z,1.30
2023-03-11T02:55:09.924Z,1.30
2023-03-11T02:57:40.595Z,1.30
2023-03-11T03:00:15.854Z,1.30
2023-03-11T03:02:46.647Z,1.20
2023-03-11T03:05:16.142Z,1.20
2023-03-11T03:07:42.921Z,1.20
2023-03-11T03:10:11.099Z,1.20
2023-03-11T03:12:37.867Z,1.20
2023-03-11T03:15:05.322Z,1.20
2023-03-11T03:17:32.138Z,1.20
2023-03-11T03:20:02.046Z,1.20
2023-03-11T03:22:29.380Z,1.20
2023-03-11T03:24:56.230Z,1.10
2023-03-11T03:27:22.988Z,1.20
2023-03-11T03:29:52.430Z,1.20
2023-03-11T03:32:28.398Z,1.10
2023-03-11T03:34:58.922Z,1.10
2023-03-11T03:37:27.916Z,1.10
2023-03-11T03:39:55.194Z,1.10
2023-03-11T03:42:22.284Z,1.10
2023-03-11T03:44:55.556Z,1.00
2023-03-11T03:47:22.414Z,1.00
2023-03-11T03:49:52.178Z,1.00
2023-03-11T03:52:19.200Z,0.90
2023-03-11T03:54:46.152Z,0.90
2023-03-11T03:57:13.631Z,0.90
2023-03-11T03:59:40.377Z,0.80
2023-03-11T04:02:07.259Z,0.80
2023-03-11T04:04:34.069Z,0.80
2023-03-11T04:07:03.322Z,0.80
2023-03-11T04:09:30.079Z,0.80
2023-03-11T04:11:56.973Z,0.90
2023-03-11T04:14:26.901Z,0.90
2023-03-11T04:16:53.786Z,0.90
2023-03-11T04:19:20.675Z,0.90
2023-03-11T04:21:51.878Z,0.70
2023-03-11T04:24:19.357Z,0.70
2023-03-11T04:26:46.149Z,0.70
2023-03-11T04:29:13.422Z,0.70
2023-03-11T04:31:40.175Z,0.70
2023-03-11T04:34:07.199Z,0.70
2023-03-11T04:36:33.998Z,0.70
2023-03-11T04:39:00.778Z,0.60
2023-03-11T04:41:29.994Z,0.60
2023-03-11T04:43:56.708Z,0.60
2023-03-11T04:46:23.718Z,0.60
2023-03-11T04:48:50.625Z,0.60
2023-03-11T04:51:17.325Z,0.60
2023-03-11T04:53:44.695Z,0.60
2023-03-11T04:56:11.533Z,0.50
2023-03-11T04:58:38.368Z,0.50
2023-03-11T05:01:05.212Z,0.50
2023-03-11T05:03:32.030Z,0.50
2023-03-11T05:06:00.162Z,0.50
2023-03-11T05:08:27.150Z,0.50
2023-03-11T05:10:57.010Z,0.50
2023-03-11T05:13:23.887Z,0.50
2023-03-11T05:15:50.732Z,0.40
2023-03-11T05:18:20.656Z,0.40
2023-03-11T05:20:48.087Z,0.40
2023-03-11T05:23:18.283Z,0.40
2023-03-11T05:25:45.217Z,0.40
2023-03-11T05:28:12.201Z,0.40
2023-03-11T05:30:39.069Z,0.40
2023-03-11T05:33:05.801Z,0.40
2023-03-11T05:38:14.543Z,0.40
2023-03-11T05:40:43.590Z,0.40
2023-03-11T05:43:10.335Z,0.30
2023-03-11T05:45:37.100Z,0.10
2023-03-11T05:48:03.992Z,0.20
2023-03-11T05:50:38.170Z,0.20
2023-03-11T05:53:04.870Z,0.20
2023-03-11T05:55:34.415Z,0.30
2023-03-11T05:58:07.421Z,0.30
2023-03-11T06:00:34.186Z,0.30
2023-03-11T06:03:00.891Z,0.30
2023-03-11T06:05:27.698Z,0.20
2023-03-11T06:07:54.582Z,0.20
2023-03-11T06:10:23.390Z,0.20
2023-03-11T06:12:52.850Z,0.20
2023-03-11T06:15:22.645Z,0.30
2023-03-11T06:17:54.648Z,0.30
2023-03-11T06:20:21.709Z,0.30
2023-03-11T06:22:49.714Z,0.30
2023-03-11T06:25:16.577Z,0.30
2023-03-11T06:27:44.631Z,0.30
2023-03-11T06:30:12.503Z,0.30
2023-03-11T06:32:39.347Z,0.30
2023-03-11T06:35:06.738Z,0.30
2023-03-11T06:37:37.189Z,0.30
2023-03-11T06:40:33.928Z,0.30
2023-03-11T06:43:06.906Z,0.30
2023-03-11T06:45:33.741Z,0.30
2023-03-11T06:48:06.440Z,0.30
2023-03-11T06:50:33.206Z,0.30
2023-03-11T06:53:00.068Z,0.40
2023-03-11T06:55:27.014Z,0.40
2023-03-11T06:57:53.837Z,0.40
2023-03-11T07:00:26.167Z,0.40
2023-03-11T07:02:53.986Z,0.40
2023-03-11T07:05:23.730Z,0.40
2023-03-11T07:07:55.578Z,0.40
2023-03-11T07:10:22.312Z,0.40
2023-03-11T07:12:49.088Z,0.40
2023-03-11T07:15:15.887Z,0.40
2023-03-11T07:17:43.737Z,0.50
2023-03-11T07:20:11.546Z,0.50
2023-03-11T07:22:38.321Z,0.50
2023-03-11T07:25:05.522Z,0.50
2023-03-11T07:27:32.295Z,0.50
2023-03-11T07:30:01.435Z,0.50
2023-03-11T07:32:28.548Z,0.50
2023-03-11T07:34:59.561Z,0.50
2023-03-11T07:37:26.295Z,0.50
2023-03-11T07:39:53.209Z,0.60
2023-03-11T07:42:20.585Z,0.60
2023-03-11T07:44:51.815Z,0.70
2023-03-11T07:47:18.616Z,0.70
2023-03-11T07:49:45.539Z,0.70
2023-03-11T07:52:12.311Z,0.70
2023-03-11T07:54:39.045Z,0.80
2023-03-11T07:57:07.274Z,0.80
2023-03-11T07:59:33.989Z,0.80
2023-03-11T08:02:02.738Z,0.90
2023-03-11T08:04:32.512Z,1.00
2023-03-11T08:06:59.268Z,1.00
2023-03-11T08:09:26.043Z,1.10
2023-03-11T08:11:52.991Z,1.10
2023-03-11T08:14:19.756Z,1.20
2023-03-11T08:16:46.571Z,1.30
2023-03-11T08:19:14.238Z,1.30
2023-03-11T08:21:41.031Z,1.30
2023-03-11T08:24:11.707Z,1.40
2023-03-11T08:26:38.885Z,1.40
2023-03-11T08:29:06.142Z,1.40
2023-03-11T08:31:35.253Z,1.50
2023-03-11T08:34:09.393Z,1.60
2023-03-11T08:36:36.448Z,1.70
2023-03-11T08:39:04.193Z,1.70
2023-03-11T08:41:31.431Z,1.80
2023-03-11T08:43:58.604Z,1.90
2023-03-11T08:46:33.038Z,2.00
2023-03-11T08:49:01.374Z,2.30
2023-03-11T08:51:31.062Z,2.60
2023-03-11T08:54:01.374Z,3.00
2023-03-11T08:56:31.614Z,3.40
2023-03-11T08:58:58.546Z,3.80
2023-03-11T09:01:25.664Z,4.00
2023-03-11T09:03:52.838Z,4.20
2023-03-11T09:06:19.926Z,4.30
2023-03-11T09:08:52.391Z,4.40
2023-03-11T09:11:21.972Z,4.40
2023-03-11T09:13:52.001Z,4.50
2023-03-11T09:16:23.006Z,4.50
2023-03-11T09:18:50.506Z,4.50
2023-03-11T09:21:17.645Z,4.60
2023-03-11T09:23:48.519Z,4.60
2023-03-11T09:26:15.658Z,4.60
2023-03-11T09:28:45.412Z,4.70
2023-03-11T09:31:12.238Z,4.70
2023-03-11T09:33:43.643Z,4.70
2023-03-11T09:36:28.337Z,4.70
2023-03-11T09:38:55.084Z,4.80
2023-03-11T09:41:58.424Z,4.70
2023-03-11T09:45:11.330Z,4.80
2023-03-11T09:48:17.618Z,5.00
2023-03-11T09:51:12.932Z,5.30
2023-03-11T09:53:45.812Z,5.30
2023-03-11T09:56:21.833Z,5.50
2023-03-11T09:58:51.513Z,5.60
2023-03-11T10:01:27.544Z,5.70
2023-03-11T10:04:21.734Z,5.60
2023-03-11T10:06:51.641Z,5.70
2023-03-11T10:09:53.225Z,5.80
2023-03-11T10:13:15.030Z,5.80
2023-03-11T10:16:31.572Z,5.80
2023-03-11T10:19:36.810Z,5.70
2023-03-11T10:22:19.611Z,5.50
2023-03-11T10:25:16.516Z,5.60
2023-03-11T10:27:54.035Z,5.50
2023-03-11T10:30:40.134Z,5.40
2023-03-11T10:33:41.053Z,5.50
2023-03-11T10:36:26.375Z,5.50
2023-03-11T10:38:57.881Z,5.40
2023-03-11T10:41:44.337Z,5.40
2023-03-11T10:44:31.488Z,5.50
2023-03-11T10:46:58.229Z,5.60
2023-03-11T10:49:25.006Z,5.60
2023-03-11T10:51:54.212Z,5.70
2023-03-11T10:54:39.739Z,5.80
2023-03-11T10:57:38.902Z,5.90
2023-03-11T11:00:16.979Z,6.00
2023-03-11T11:03:08.702Z,6.00
2023-03-11T11:05:39.658Z,6.00
2023-03-11T11:08:19.298Z,5.80
2023-03-11T11:11:01.085Z,6.10
2023-03-11T11:13:37.033Z,6.10
2023-03-11T11:16:20.272Z,6.10
2023-03-11T11:18:55.034Z,6.20
2023-03-11T11:21:38.033Z,6.30
2023-03-11T11:24:30.115Z,6.30
2023-03-11T11:27:06.426Z,6.40
2023-03-11T11:29:34.717Z,6.30
2023-03-11T11:32:26.092Z,6.40
2023-03-11T11:35:02.485Z,6.30
2023-03-11T11:37:43.266Z,6.30
2023-03-11T11:40:18.648Z,6.40
2023-03-11T11:43:22.104Z,6.40
2023-03-11T11:46:05.833Z,6.40
2023-03-11T11:49:04.679Z,6.30
2023-03-11T11:52:10.385Z,6.50
2023-03-11T11:54:59.362Z,6.50
2023-03-11T11:57:26.324Z,6.60
2023-03-11T11:59:53.186Z,6.50
2023-03-11T12:02:33.304Z,6.50
2023-03-11T12:05:38.032Z,6.40
2023-03-11T12:08:34.393Z,6.60
2023-03-11T12:11:29.052Z,6.70
2023-03-11T12:14:25.054Z,6.80
2023-03-11T12:17:03.927Z,7.00
2023-03-11T12:19:51.825Z,7.10
2023-03-11T12:22:29.073Z,7.00
2023-03-11T12:25:22.365Z,7.20
2023-03-11T12:28:12.812Z,7.10
2023-03-11T12:30:56.542Z,6.90
2023-03-11T12:34:02.312Z,7.20
2023-03-11T12:36:40.219Z,7.10
2023-03-11T12:39:39.468Z,7.20
2023-03-11T12:42:18.858Z,7.10
2023-03-11T12:44:47.499Z,7.00
2023-03-11T12:47:22.952Z,7.00
2023-03-11T12:50:35.150Z,7.00
2023-03-11T12:53:01.931Z,7.20
2023-03-11T12:55:36.105Z,7.30
2023-03-11T12:58:59.922Z,7.20
2023-03-11T13:01:57.121Z,7.20
2023-03-11T13:04:49.603Z,7.40
2023-03-11T13:07:22.509Z,7.50
2023-03-11T13:10:34.641Z,7.50
2023-03-11T13:13:02.374Z,7.30
2023-03-11T13:15:37.728Z,7.30
2023-03-11T13:18:23.463Z,7.30
2023-03-11T13:21:04.591Z,7.30
2023-03-11T13:23:40.806Z,7.20
2023-03-11T13:26:29.035Z,7.10
2023-03-11T13:29:13.681Z,7.10
2023-03-11T13:31:46.498Z,7.40
2023-03-11T13:34:37.109Z,7.40
2023-03-11T13:37:09.710Z,7.30
2023-03-11T13:40:16.774Z,7.30
2023-03-11T13:43:03.981Z,7.40
2023-03-11T13:45:35.604Z,7.30
2023-03-11T13:48:23.906Z,7.40
2023-03-11T13:51:16.560Z,7.40
2023-03-11T13:54:17.782Z,7.40
2023-03-11T13:56:54.551Z,7.50
2023-03-11T13:59:34.684Z,7.50
2023-03-11T14:02:19.082Z,7.30
2023-03-11T14:05:02.908Z,7.30
2023-03-11T14:07:35.166Z,7.20
2023-03-11T14:10:31.380Z,7.20
2023-03-11T14:13:21.824Z,7.30
2023-03-11T14:16:04.810Z,7.50
2023-03-11T14:18:44.323Z,7.30
2023-03-11T14:21:33.918Z,7.20
2023-03-11T14:24:03.663Z,7.30
2023-03-11T14:26:35.080Z,7.30
2023-03-11T14:29:14.614Z,7.40
2023-03-11T14:31:47.497Z,7.40
2023-03-11T14:34:18.850Z,7.40
2023-03-11T14:37:25.412Z,7.40
2023-03-11T14:39:54.902Z,7.30
2023-03-11T14:42:34.326Z,7.20
2023-03-11T14:45:15.842Z,7.20
2023-03-11T14:48:03.817Z,7.30
2023-03-11T14:50:35.146Z,7.40
2023-03-11T14:53:24.283Z,7.70
2023-03-11T14:56:01.846Z,7.90
2023-03-11T14:58:37.107Z,8.00
2023-03-11T15:01:17.368Z,7.90
2023-03-11T15:03:56.599Z,7.90
2023-03-11T15:06:31.117Z,7.70
2023-03-11T15:09:19.650Z,7.60
2023-03-11T15:11:50.544Z,7.60
2023-03-11T15:14:48.071Z,7.40
2023-03-11T15:17:42.912Z,7.40
2023-03-11T15:20:30.953Z,7.50
2023-03-11T15:23:04.008Z,7.70
2023-03-11T15:25:36.487Z,7.70
2023-03-11T15:28:29.305Z,7.90
2023-03-11T15:31:21.345Z,8.00
2023-03-11T15:33:49.315Z,7.90
2023-03-11T15:36:39.238Z,7.90
2023-03-11T15:39:18.756Z,7.90
2023-03-11T15:42:13.353Z,8.00
2023-03-11T15:45:09.442Z,7.90
2023-03-11T15:47:36.267Z,7.80
2023-03-11T15:50:43.138Z,7.80
2023-03-11T15:53:20.102Z,7.80
2023-03-11T15:55:56.310Z,7.70
2023-03-11T15:58:25.310Z,7.40
2023-03-11T16:00:57.465Z,7.40
2023-03-11T16:03:24.726Z,7.50
2023-03-11T16:05:54.637Z,7.50
2023-03-11T16:08:21.515Z,7.50
2023-03-11T16:10:50.688Z,7.60
2023-03-11T16:13:17.497Z,7.70
2023-03-11T16:15:48.899Z,7.60
2023-03-11T16:18:19.345Z,7.80
2023-03-11T16:20:53.939Z,7.80
2023-03-11T16:23:29.569Z,7.80
2023-03-11T16:26:02.323Z,7.90
2023-03-11T16:28:29.531Z,7.80
2023-03-11T16:30:56.767Z,7.70
2023-03-11T16:33:23.767Z,7.70
2023-03-11T16:35:50.705Z,7.80
2023-03-11T16:38:19.370Z,7.60
2023-03-11T16:40:55.905Z,7.40
2023-03-11T16:43:23.182Z,7.40
2023-03-11T16:45:50.048Z,7.40
2023-03-11T16:48:16.992Z,7.30
2023-03-11T16:50:43.854Z,7.20
2023-03-11T16:53:10.728Z,7.30
2023-03-11T16:55:37.639Z,7.20
2023-03-11T16:58:04.463Z,7.00
2023-03-11T17:00:31.364Z,7.00
2023-03-11T17:02:58.219Z,7.00
2023-03-11T17:05:25.066Z,6.90
2023-03-11T17:08:00.659Z,6.90
2023-03-11T17:10:38.075Z,6.80
2023-03-11T17:13:06.911Z,6.70
2023-03-11T17:15:44.384Z,6.60
2023-03-11T17:18:12.120Z,6.60
2023-03-11T17:20:43.284Z,6.60
2023-03-11T17:23:10.518Z,6.60
2023-03-11T17:25:41.617Z,6.60
2023-03-11T17:28:09.204Z,6.60
2023-03-11T17:30:37.564Z,6.70
2023-03-11T17:33:04.980Z,6.70
2023-03-11T17:35:32.099Z,6.70
2023-03-11T17:37:59.053Z,6.70
2023-03-11T17:40:28.945Z,6.70
2023-03-11T17:42:55.830Z,6.60
2023-03-11T17:45:22.643Z,6.60
2023-03-11T17:47:49.445Z,6.50
2023-03-11T17:50:17.417Z,6.50
2023-03-11T17:52:49.759Z,6.50
2023-03-11T17:55:19.004Z,6.40
2023-03-11T17:57:46.152Z,6.30
2023-03-11T18:00:14.691Z,6.30
2023-03-11T18:02:43.059Z,6.30
2023-03-11T18:05:10.264Z,6.30
2023-03-11T18:07:40.823Z,6.20
2023-03-11T18:10:09.698Z,6.20
2023-03-11T18:12:37.129Z,6.10
2023-03-11T18:15:07.169Z,6.00
2023-03-11T18:17:37.076Z,6.00
2023-03-11T18:20:04.995Z,5.90
2023-03-11T18:22:34.103Z,5.90
2023-03-11T18:25:01.919Z,5.90
2023-03-11T18:27:28.662Z,5.90
2023-03-11T18:29:55.440Z,5.80
2023-03-11T18:32:24.612Z,5.80
2023-03-11T18:34:51.512Z,5.70
2023-03-11T18:37:18.389Z,5.60
2023-03-11T18:39:45.300Z,5.60
2023-03-11T18:42:18.023Z,5.60
2023-03-11T18:44:47.421Z,5.50
2023-03-11T18:47:20.277Z,5.50
2023-03-11T18:49:47.337Z,5.50
2023-03-11T18:52:17.289Z,5.50
2023-03-11T18:54:44.697Z,5.50
2023-03-11T18:57:11.490Z,5.40
2023-03-11T18:59:38.275Z,5.40
2023-03-11T19:02:09.445Z,5.40
2023-03-11T19:04:36.342Z,5.30
2023-03-11T19:07:06.217Z,5.30
2023-03-11T19:09:36.055Z,5.30
2023-03-11T19:12:02.899Z,5.20
2023-03-11T19:14:33.015Z,5.20
2023-03-11T19:16:59.818Z,5.10
2023-03-11T19:19:31.478Z,5.20
2023-03-11T19:22:00.737Z,5.10
2023-03-11T19:24:27.567Z,5.10
2023-03-11T19:26:54.391Z,5.10
2023-03-11T19:29:26.108Z,5.10
2023-03-11T19:31:53.519Z,5.00
2023-03-11T19:34:21.422Z,4.90
2023-03-11T19:36:48.359Z,4.90
2023-03-11T19:39:15.124Z,5.00
2023-03-11T19:41:41.979Z,4.90
2023-03-11T19:44:08.892Z,4.90
2023-03-11T19:46:38.560Z,4.90
2023-03-11T19:49:08.401Z,4.90
2023-03-11T19:51:49.009Z,4.90
2023-03-11T19:54:17.403Z,4.80
2023-03-11T19:56:51.855Z,4.80
2023-03-11T19:59:18.807Z,4.80
2023-03-11T20:01:45.719Z,4.70
2023-03-11T20:04:14.895Z,4.60
2023-03-11T20:06:44.942Z,4.60
2023-03-11T20:09:13.018Z,4.50
2023-03-11T20:11:40.762Z,4.50
2023-03-11T20:14:09.816Z,4.40
2023-03-11T20:16:36.801Z,4.40
2023-03-11T20:19:07.473Z,4.40
2023-03-11T20:21:38.905Z,4.40
2023-03-11T20:24:06.139Z,4.40
2023-03-11T20:26:34.205Z,4.30
2023-03-11T20:29:01.098Z,4.30
2023-03-11T20:31:29.271Z,4.30
2023-03-11T20:34:00.678Z,4.20
2023-03-11T20:36:32.884Z,4.20
2023-03-11T20:39:04.647Z,4.20
2023-03-11T20:41:40.217Z,4.20
2023-03-11T20:44:12.136Z,4.20
2023-03-11T20:46:39.185Z,4.20
2023-03-11T20:49:06.158Z,4.20
2023-03-11T20:51:34.965Z,4.10
2023-03-11T20:54:01.806Z,4.10
2023-03-11T20:56:29.162Z,4.00
2023-03-11T20:58:59.193Z,3.90
2023-03-11T21:01:31.000Z,3.90
2023-03-11T21:04:02.099Z,3.90
2023-03-11T21:06:33.382Z,3.90
2023-03-11T21:09:04.895Z,3.80
2023-03-11T21:11:32.264Z,3.80
2023-03-11T21:13:59.427Z,3.80
2023-03-11T21:16:27.012Z,3.80
2023-03-11T21:18:54.258Z,3.80
2023-03-11T21:21:21.832Z,3.80
2023-03-11T21:23:49.197Z,3.90
2023-03-11T21:26:17.881Z,3.90
2023-03-11T21:28:46.397Z,3.90
2023-03-11T21:31:21.420Z,3.80
2023-03-11T21:33:51.905Z,3.80
2023-03-11T21:36:22.351Z,3.80
2023-03-11T21:38:52.071Z,3.80
2023-03-11T21:41:26.312Z,3.70
2023-03-11T21:43:57.258Z,3.70
2023-03-11T21:46:30.728Z,3.70
2023-03-11T21:49:01.317Z,3.70
2023-03-11T21:51:30.037Z,3.60
2023-03-11T21:54:00.038Z,3.60
2023-03-11T21:56:30.086Z,3.60
2023-03-11T21:58:57.217Z,3.70
2023-03-11T22:01:31.267Z,3.70
2023-03-11T22:03:58.211Z,3.60
2023-03-11T22:06:25.139Z,3.60
2023-03-11T22:08:52.468Z,3.60
2023-03-11T22:11:20.478Z,3.60
2023-03-11T22:13:51.249Z,3.50
2023-03-11T22:16:20.996Z,3.50
2023-03-11T22:18:48.996Z,3.50
2023-03-11T22:21:17.516Z,3.50
2023-03-11T22:23:45.148Z,3.40
2023-03-11T22:26:12.444Z,3.40
2023-03-11T22:28:39.381Z,3.40
2023-03-11T22:31:13.163Z,3.30
2023-03-11T22:33:40.305Z,3.30
2023-03-11T22:36:09.082Z,3.20
2023-03-11T22:38:36.866Z,3.20
2023-03-11T22:41:09.678Z,3.20
2023-03-11T22:43:37.589Z,3.20
2023-03-11T22:46:05.980Z,3.20
2023-03-11T22:48:35.805Z,3.10
2023-03-11T22:51:03.334Z,3.20
2023-03-11T22:53:30.483Z,3.10
2023-03-11T22:55:57.340Z,3.10
2023-03-11T22:58:24.527Z,3.10
2023-03-11T23:00:53.846Z,3.10
2023-03-11T23:03:20.668Z,3.10
2023-03-11T23:05:55.024Z,3.20
2023-03-11T23:08:21.731Z,3.20
2023-03-11T23:10:49.131Z,3.20
2023-03-11T23:13:18.391Z,3.20
2023-03-11T23:15:47.233Z,3.30
2023-03-11T23:18:15.864Z,3.30
2023-03-11T23:20:44.412Z,3.30
2023-03-11T23:23:12.647Z,3.30
2023-03-11T23:25:40.993Z,3.30
2023-03-11T23:28:08.261Z,3.30
2023-03-11T23:30:35.297Z,3.30
2023-03-11T23:33:05.249Z,3.30
2023-03-11T23:35:33.336Z,3.40
2023-03-11T23:38:00.697Z,3.40
2023-03-11T23:40:27.532Z,3.40
2023-03-11T23:42:54.376Z,3.40
2023-03-11T23:45:21.244Z,3.50
2023-03-11T23:47:48.068Z,3.50
2023-03-11T23:50:19.759Z,3.40
2023-03-11T23:52:49.573Z,3.50
2023-03-11T23:55:16.477Z,3.50
2023-03-11T23:57:43.260Z,3.50
